Time;durP1;ratioP1;P1;durP2;ratioP2;P2;SDS_P1;SDS_P2;PMS_P1;PMS_P2;Temp;Humidity;BMP_temperature;BMP_pressure;BME280_temperature;BME280_humidity;BME280_pressure;Samples;Min_cycle;Max_cycle;Signal;HPM_P1;HPM_P2
2023/07/26 00:00:07;;;;;;;3.35;2.00;;;14.60;89.60;;;;;;5061323;28;20423;-73
2023/07/26 00:02:34;;;;;;;3.08;2.00;;;14.60;89.70;;;;;;5052918;28;20496;-74
2023/07/26 00:05:01;;;;;;;3.00;2.10;;;14.60;89.60;;;;;;5056326;28;20429;-73
2023/07/26 00:07:27;;;;;;;4.38;2.13;;;14.60;89.60;;;;;;5058101;28;20417;-73
2023/07/26 00:09:55;;;;;;;2.22;1.70;;;14.60;90.00;;;;;;5053426;28;20420;-72
2023/07/26 00:12:22;;;;;;;2.67;2.10;;;14.60;90.20;;;;;;5048246;28;20435;-74
2023/07/26 00:14:49;;;;;;;3.40;2.00;;;14.60;90.40;;;;;;5062215;28;20756;-73
2023/07/26 00:17:16;;;;;;;3.45;1.80;;;14.60;90.60;;;;;;5062097;28;20427;-73
2023/07/26 00:19:42;;;;;;;5.03;2.30;;;14.50;90.60;;;;;;5050103;28;20444;-73
2023/07/26 00:22:09;;;;;;;3.50;1.88;;;14.50;90.60;;;;;;5059934;28;20928;-72
2023/07/26 00:24:36;;;;;;;3.55;1.80;;;14.50;90.70;;;;;;5058621;28;20417;-73
2023/07/26 00:27:04;;;;;;;4.40;2.00;;;14.50;90.80;;;;;;5064135;28;20419;-73
2023/07/26 00:29:31;;;;;;;3.78;2.15;;;14.50;90.80;;;;;;5059203;28;20441;-73
2023/07/26 00:31:58;;;;;;;3.40;1.83;;;14.50;90.70;;;;;;5061511;28;20432;-72
2023/07/26 00:34:25;;;;;;;3.20;1.98;;;14.50;90.70;;;;;;5063406;28;20433;-73
2023/07/26 00:36:51;;;;;;;2.70;1.90;;;14.50;90.80;;;;;;5057364;28;20806;-73
2023/07/26 00:39:18;;;;;;;2.77;2.00;;;14.50;90.90;;;;;;5063591;28;20412;-74
2023/07/26 00:41:45;;;;;;;3.75;2.40;;;14.50;91.20;;;;;;5057132;28;20424;-73
2023/07/26 00:44:13;;;;;;;2.10;1.90;;;14.50;91.00;;;;;;5049009;28;20430;-73
2023/07/26 00:46:40;;;;;;;3.05;1.92;;;14.50;91.10;;;;;;5063078;28;20433;-73
2023/07/26 00:49:08;;;;;;;5.35;2.20;;;14.50;91.10;;;;;;5059667;28;20429;-73
2023/07/26 00:51:35;;;;;;;3.90;1.80;;;14.50;91.60;;;;;;5059041;28;20443;-72
2023/07/26 00:54:03;;;;;;;4.00;2.10;;;14.50;91.10;;;;;;5056004;28;20498;-73
2023/07/26 00:56:30;;;;;;;3.13;2.00;;;14.50;91.00;;;;;;5060781;28;20435;-73
2023/07/26 00:58:57;;;;;;;3.75;1.95;;;14.50;91.20;;;;;;5061390;28;20442;-74
2023/07/26 01:01:25;;;;;;;3.60;2.15;;;14.50;91.30;;;;;;5063886;28;20416;-73
2023/07/26 01:03:52;;;;;;;3.97;2.20;;;14.50;91.00;;;;;;5054233;28;20525;-73
2023/07/26 01:06:25;;;;;;;2.70;1.90;;;14.50;91.20;;;;;;5052646;28;20410;-73
2023/07/26 01:09:01;;;;;;;2.00;1.80;;;14.50;91.00;;;;;;5048058;28;20421;-72
2023/07/26 01:11:35;;;;;;;3.00;1.70;;;14.50;91.10;;;;;;5052105;28;20471;-74
2023/07/26 01:14:13;;;;;;;5.60;2.20;;;14.50;91.20;;;;;;5048397;28;20481;-73
2023/07/26 01:16:42;;;;;;;3.00;2.00;;;14.50;91.30;;;;;;5050781;28;20435;-73
2023/07/26 01:19:09;;;;;;;3.70;2.00;;;14.50;91.40;;;;;;5051624;28;20439;-73
2023/07/26 01:21:37;;;;;;;3.33;2.00;;;14.50;91.90;;;;;;5062999;28;20432;-73
2023/07/26 01:24:04;;;;;;;2.20;2.00;;;14.60;92.70;;;;;;5056424;28;20505;-73
2023/07/26 01:26:31;;;;;;;2.90;1.90;;;14.60;92.20;;;;;;5048138;28;20421;-73
2023/07/26 01:28:57;;;;;;;3.58;2.20;;;14.60;91.90;;;;;;5052275;28;20430;-73
2023/07/26 01:31:25;;;;;;;3.50;2.10;;;14.50;91.80;;;;;;5059440;28;20425;-75
2023/07/26 01:33:53;;;;;;;4.40;2.17;;;14.60;92.40;;;;;;5060694;28;20502;-73
2023/07/26 01:36:22;;;;;;;3.88;2.28;;;14.50;92.90;;;;;;5046457;28;20516;-73
2023/07/26 01:38:51;;;;;;;5.95;2.35;;;14.60;93.30;;;;;;5057853;28;20411;-73
2023/07/26 01:41:18;;;;;;;4.35;2.13;;;14.60;93.50;;;;;;5052474;28;20413;-74
2023/07/26 01:43:45;;;;;;;2.40;2.08;;;14.60;92.70;;;;;;5055397;28;20415;-74
2023/07/26 01:46:12;;;;;;;3.15;2.30;;;14.50;92.70;;;;;;5059146;28;20437;-74
2023/07/26 01:48:39;;;;;;;3.47;2.47;;;14.50;92.60;;;;;;5062612;28;20898;-72
2023/07/26 01:51:06;;;;;;;3.50;2.30;;;14.50;92.70;;;;;;5047524;28;20461;-73
2023/07/26 01:53:32;;;;;;;3.05;2.00;;;14.50;92.80;;;;;;5047358;28;20779;-73
2023/07/26 01:56:01;;;;;;;5.10;2.60;;;14.50;93.80;;;;;;5052537;28;20730;-72
2023/07/26 01:58:28;;;;;;;4.55;2.40;;;14.50;93.50;;;;;;5061119;28;20905;-73
2023/07/26 02:00:54;;;;;;;2.78;2.20;;;14.50;94.10;;;;;;5052558;28;20811;-74
2023/07/26 02:03:21;;;;;;;3.40;2.45;;;14.50;93.30;;;;;;5050910;28;20421;-73
2023/07/26 02:05:48;;;;;;;3.40;2.50;;;14.50;93.50;;;;;;5061705;28;20435;-74
2023/07/26 02:08:16;;;;;;;3.63;2.40;;;14.40;93.30;;;;;;5060440;28;20431;-74
2023/07/26 02:10:43;;;;;;;3.50;2.40;;;14.40;93.50;;;;;;5059023;28;20417;-74
2023/07/26 02:13:11;;;;;;;3.30;2.40;;;14.40;93.60;;;;;;5051654;28;20456;-74
2023/07/26 02:15:38;;;;;;;5.00;2.60;;;14.40;94.20;;;;;;5060001;28;20412;-72
2023/07/26 02:18:05;;;;;;;3.42;2.65;;;14.40;94.00;;;;;;5057108;28;20440;-75
2023/07/26 02:20:32;;;;;;;3.28;2.40;;;14.40;94.60;;;;;;5059806;28;20444;-73
2023/07/26 02:22:59;;;;;;;4.30;2.70;;;14.30;94.80;;;;;;5054524;28;20894;-73
2023/07/26 02:25:26;;;;;;;3.40;2.80;;;14.30;94.20;;;;;;5054628;28;20428;-74
2023/07/26 02:27:53;;;;;;;5.65;2.63;;;14.30;94.40;;;;;;5067216;28;20428;-73
2023/07/26 02:30:21;;;;;;;3.50;2.38;;;14.30;94.60;;;;;;5062853;28;20450;-73
2023/07/26 02:32:47;;;;;;;3.22;2.60;;;14.30;94.50;;;;;;5051078;28;20432;-73
2023/07/26 02:35:14;;;;;;;3.10;2.72;;;14.30;94.50;;;;;;5060285;28;20438;-73
2023/07/26 02:37:41;;;;;;;3.05;2.75;;;14.30;94.50;;;;;;5061156;28;20435;-73
2023/07/26 02:40:08;;;;;;;4.00;3.13;;;14.30;95.00;;;;;;5061840;28;20420;-74
2023/07/26 02:42:35;;;;;;;3.90;2.90;;;14.20;94.80;;;;;;5053652;28;20425;-74
2023/07/26 02:45:02;;;;;;;3.00;2.80;;;14.20;94.80;;;;;;5050599;28;20483;-73
2023/07/26 02:47:32;;;;;;;6.05;3.72;;;14.20;94.50;;;;;;5064027;28;20418;-72
2023/07/26 02:50:00;;;;;;;3.50;3.20;;;14.20;94.50;;;;;;5062502;28;20515;-73
2023/07/26 02:52:26;;;;;;;3.70;3.00;;;14.20;94.50;;;;;;5054760;28;20417;-73
2023/07/26 02:54:53;;;;;;;3.67;3.10;;;14.20;94.60;;;;;;5056777;28;20421;-73
2023/07/26 02:57:20;;;;;;;4.20;3.03;;;14.20;94.50;;;;;;5050481;28;20515;-73
2023/07/26 02:59:47;;;;;;;4.50;3.20;;;14.10;94.50;;;;;;5061418;28;20415;-73
2023/07/26 03:02:14;;;;;;;4.87;3.10;;;14.20;94.60;;;;;;5064298;28;20452;-74
2023/07/26 03:04:42;;;;;;;4.00;3.60;;;14.20;94.40;;;;;;5083584;28;20437;-73
2023/07/26 03:07:08;;;;;;;3.70;3.28;;;14.20;94.40;;;;;;5070101;28;20427;-73
2023/07/26 03:09:35;;;;;;;5.40;3.20;;;14.20;94.60;;;;;;5087121;28;20637;-72
2023/07/26 03:12:02;;;;;;;3.83;3.20;;;14.20;94.40;;;;;;5066768;28;20410;-73
2023/07/26 03:14:29;;;;;;;3.40;3.10;;;14.20;94.40;;;;;;5057420;28;20425;-73
2023/07/26 03:16:55;;;;;;;4.93;3.15;;;14.20;94.60;;;;;;5056166;28;20438;-74
2023/07/26 03:19:22;;;;;;;4.05;3.65;;;14.20;94.50;;;;;;5064682;28;20783;-73
2023/07/26 03:21:50;;;;;;;4.82;2.90;;;14.20;94.40;;;;;;5054024;28;20433;-73
2023/07/26 03:24:17;;;;;;;4.90;3.60;;;14.20;94.30;;;;;;5061901;28;20436;-74
2023/07/26 03:26:43;;;;;;;3.83;3.42;;;14.20;94.10;;;;;;5061055;28;20928;-73
2023/07/26 03:29:10;;;;;;;4.20;3.20;;;14.20;94.10;;;;;;5055012;28;20421;-73
2023/07/26 03:31:37;;;;;;;3.50;3.20;;;14.20;94.20;;;;;;5052692;28;20923;-74
2023/07/26 03:34:03;;;;;;;4.22;3.33;;;14.20;94.30;;;;;;5062934;28;20415;-74
2023/07/26 03:36:30;;;;;;;4.30;3.10;;;14.20;94.60;;;;;;5053136;28;20880;-72
2023/07/26 03:38:58;;;;;;;3.90;3.60;;;14.20;94.50;;;;;;5055170;28;20429;-73
2023/07/26 03:41:25;;;;;;;3.95;3.33;;;14.20;93.90;;;;;;5049446;28;20428;-73
2023/07/26 03:43:52;;;;;;;3.60;3.00;;;14.30;93.70;;;;;;5053788;28;20418;-73
2023/07/26 03:46:18;;;;;;;3.83;3.10;;;14.30;94.10;;;;;;5054775;28;20437;-73
2023/07/26 03:48:45;;;;;;;4.75;3.50;;;14.20;93.90;;;;;;5060903;28;20414;-72
2023/07/26 03:51:12;;;;;;;3.70;3.10;;;14.30;94.30;;;;;;5047687;28;20433;-72
2023/07/26 03:53:38;;;;;;;4.70;3.40;;;14.20;94.20;;;;;;5058499;28;20423;-74
2023/07/26 03:56:07;;;;;;;3.55;3.25;;;14.20;94.20;;;;;;5054979;28;20417;-72
2023/07/26 03:58:33;;;;;;;3.53;3.22;;;14.30;93.80;;;;;;5049428;28;20447;-73
2023/07/26 04:01:00;;;;;;;4.00;3.70;;;14.30;93.70;;;;;;5053749;28;20432;-73
2023/07/26 04:03:27;;;;;;;5.07;4.57;;;14.30;93.50;;;;;;5059940;28;20422;-73
2023/07/26 04:05:53;;;;;;;3.90;3.22;;;14.30;93.70;;;;;;5052687;28;20799;-73
2023/07/26 04:08:20;;;;;;;4.57;3.42;;;14.30;93.90;;;;;;5048492;28;20429;-73
2023/07/26 04:10:47;;;;;;;4.70;3.60;;;14.30;94.10;;;;;;5049662;28;20424;-72
2023/07/26 04:13:15;;;;;;;4.77;3.97;;;14.30;93.80;;;;;;5060329;28;20783;-73
2023/07/26 04:15:41;;;;;;;4.63;3.90;;;14.30;94.30;;;;;;5058893;28;20417;-72
2023/07/26 04:18:08;;;;;;;4.53;3.80;;;14.30;94.10;;;;;;5051626;28;20513;-73
2023/07/26 04:20:35;;;;;;;6.22;4.28;;;14.30;94.00;;;;;;5049047;28;20896;-74
2023/07/26 04:23:01;;;;;;;5.45;3.60;;;14.30;94.00;;;;;;5047999;28;20832;-73
2023/07/26 04:25:28;;;;;;;4.90;3.30;;;14.30;94.10;;;;;;5055108;28;20417;-72
2023/07/26 04:27:55;;;;;;;4.00;3.60;;;14.30;94.30;;;;;;5086155;22;20996;-65
2023/07/26 04:30:23;;;;;;;4.13;3.27;;;14.20;94.20;;;;;;5066803;28;20415;-69
2023/07/26 04:32:50;;;;;;;3.92;3.25;;;14.20;94.20;;;;;;5067070;28;20905;-70
2023/07/26 04:35:16;;;;;;;3.67;2.83;;;14.20;94.40;;;;;;5068359;28;20419;-70
2023/07/26 04:37:43;;;;;;;3.90;2.72;;;14.20;94.50;;;;;;5065525;28;20434;-71
2023/07/26 04:40:11;;;;;;;4.28;3.67;;;14.20;94.50;;;;;;5062122;28;20438;-70
2023/07/26 04:42:37;;;;;;;4.13;3.40;;;14.20;94.80;;;;;;5067531;28;20442;-69
2023/07/26 04:45:05;;;;;;;5.40;3.53;;;14.20;95.10;;;;;;5065735;28;20463;-71
2023/07/26 04:47:33;;;;;;;4.75;3.75;;;14.20;95.40;;;;;;5066173;28;20427;-70
2023/07/26 04:50:00;;;;;;;3.73;3.43;;;14.20;95.70;;;;;;5065975;28;20428;-69
2023/07/26 04:52:27;;;;;;;3.92;3.50;;;14.20;96.60;;;;;;5065969;28;20488;-73
2023/07/26 04:54:53;;;;;;;4.68;3.80;;;14.30;96.80;;;;;;5067035;28;20435;-71
2023/07/26 04:57:20;;;;;;;3.50;3.20;;;14.30;96.80;;;;;;5067561;28;20447;-70
2023/07/26 04:59:47;;;;;;;3.65;2.90;;;14.30;96.90;;;;;;5065447;28;20824;-71
2023/07/26 05:02:14;;;;;;;3.50;2.80;;;14.30;96.60;;;;;;5067832;28;20423;-72
2023/07/26 05:04:42;;;;;;;2.78;2.47;;;14.40;96.40;;;;;;5067866;28;20439;-72
2023/07/26 05:07:08;;;;;;;3.00;2.60;;;14.40;96.30;;;;;;5066405;28;20427;-71
2023/07/26 05:09:35;;;;;;;2.60;2.40;;;14.40;96.30;;;;;;5060498;28;20458;-74
2023/07/26 05:12:02;;;;;;;4.50;2.70;;;14.40;95.90;;;;;;5066925;28;20797;-70
2023/07/26 05:14:28;;;;;;;3.10;2.60;;;14.50;95.80;;;;;;5066035;28;20796;-70
2023/07/26 05:16:55;;;;;;;3.03;2.70;;;14.50;96.10;;;;;;5058586;28;20454;-70
2023/07/26 05:19:22;;;;;;;3.63;2.90;;;14.50;96.00;;;;;;5066046;28;20809;-70
2023/07/26 05:21:50;;;;;;;3.80;2.78;;;14.60;96.10;;;;;;5065646;28;20427;-70
2023/07/26 05:24:17;;;;;;;3.03;2.83;;;14.60;96.00;;;;;;5066505;28;20427;-70
2023/07/26 05:26:43;;;;;;;2.95;2.67;;;14.70;95.90;;;;;;5065770;28;20431;-70
2023/07/26 05:29:10;;;;;;;3.40;2.83;;;14.70;95.80;;;;;;5065631;28;20443;-70
2023/07/26 05:31:37;;;;;;;3.40;3.10;;;14.70;95.70;;;;;;5066860;28;20889;-70
2023/07/26 05:34:04;;;;;;;3.20;2.90;;;14.80;95.40;;;;;;5066113;28;20433;-70
2023/07/26 05:36:31;;;;;;;3.65;2.90;;;14.80;95.50;;;;;;5067300;28;20443;-70
2023/07/26 05:38:59;;;;;;;3.88;3.15;;;14.90;94.80;;;;;;5069358;28;20831;-70
2023/07/26 05:41:26;;;;;;;3.40;3.00;;;14.90;94.50;;;;;;5068671;28;20434;-70
2023/07/26 05:43:53;;;;;;;5.68;3.33;;;14.90;94.70;;;;;;5069368;28;20496;-70
2023/07/26 05:46:20;;;;;;;5.55;3.83;;;15.00;94.80;;;;;;5071278;28;20423;-72
2023/07/26 05:48:47;;;;;;;3.55;2.70;;;15.10;94.20;;;;;;5070719;28;20415;-70
2023/07/26 05:51:13;;;;;;;3.50;3.20;;;15.10;93.90;;;;;;5067545;28;20416;-70
2023/07/26 05:53:40;;;;;;;4.32;3.80;;;15.10;93.90;;;;;;5062082;28;20450;-71
2023/07/26 05:56:08;;;;;;;5.30;3.50;;;15.20;93.30;;;;;;5069592;28;20430;-70
2023/07/26 05:58:35;;;;;;;4.90;3.90;;;15.20;93.20;;;;;;5063475;28;20967;-71
2023/07/26 06:01:02;;;;;;;5.10;4.10;;;15.20;92.90;;;;;;5066962;28;20786;-70
2023/07/26 06:03:29;;;;;;;5.22;3.70;;;15.20;93.00;;;;;;5070971;28;20432;-69
2023/07/26 06:05:56;;;;;;;5.35;3.58;;;15.20;93.40;;;;;;5068763;28;20802;-70
2023/07/26 06:08:22;;;;;;;4.47;3.67;;;15.30;92.70;;;;;;5071422;28;20455;-71
2023/07/26 06:10:49;;;;;;;5.93;3.92;;;15.30;92.70;;;;;;5070321;28;20438;-70
2023/07/26 06:13:17;;;;;;;4.57;3.63;;;15.30;92.80;;;;;;5067008;28;20420;-71
2023/07/26 06:15:44;;;;;;;3.90;3.25;;;15.30;92.60;;;;;;5069859;28;20882;-71
2023/07/26 06:18:11;;;;;;;4.00;3.60;;;15.30;92.50;;;;;;5068592;28;20423;-70
2023/07/26 06:20:38;;;;;;;4.80;2.88;;;15.30;92.20;;;;;;5073269;28;20417;-71
2023/07/26 06:23:06;;;;;;;4.33;3.30;;;15.20;91.90;;;;;;5069326;28;20436;-71
2023/07/26 06:25:33;;;;;;;4.40;3.43;;;15.20;92.00;;;;;;5070192;28;20431;-71
2023/07/26 06:28:00;;;;;;;3.50;3.20;;;15.20;92.70;;;;;;5077972;28;20419;-71
2023/07/26 06:30:28;;;;;;;4.47;3.38;;;15.30;92.40;;;;;;5072513;28;20415;-71
2023/07/26 06:32:54;;;;;;;3.55;3.03;;;15.30;92.70;;;;;;5061259;28;20428;-71
2023/07/26 06:35:21;;;;;;;5.20;3.90;;;15.50;92.20;;;;;;5070288;28;20823;-71
2023/07/26 06:37:48;;;;;;;4.38;3.03;;;15.60;92.00;;;;;;5069047;28;20576;-70
2023/07/26 06:40:15;;;;;;;5.20;3.60;;;15.70;92.00;;;;;;5069805;28;20438;-71
2023/07/26 06:42:42;;;;;;;3.80;3.40;;;15.80;90.90;;;;;;5070101;28;20821;-70
2023/07/26 06:45:09;;;;;;;4.90;3.33;;;15.80;90.50;;;;;;5070773;28;20419;-70
2023/07/26 06:47:37;;;;;;;3.83;3.30;;;15.80;90.50;;;;;;5070180;28;20424;-71
2023/07/26 06:50:05;;;;;;;4.53;3.70;;;15.80;91.00;;;;;;5061630;28;20797;-70
2023/07/26 06:52:32;;;;;;;3.75;3.22;;;15.80;91.00;;;;;;5070052;28;20779;-71
2023/07/26 06:54:59;;;;;;;4.72;3.47;;;15.80;90.80;;;;;;5069183;28;20438;-71
2023/07/26 06:57:26;;;;;;;4.90;3.70;;;15.80;91.00;;;;;;5068324;28;20798;-71
2023/07/26 06:59:53;;;;;;;4.25;3.83;;;15.80;90.80;;;;;;5069427;28;20412;-71
2023/07/26 07:02:19;;;;;;;5.30;3.47;;;15.80;90.80;;;;;;5067774;28;20750;-71
2023/07/26 07:04:47;;;;;;;5.80;3.75;;;15.80;91.20;;;;;;5069938;28;21034;-71
2023/07/26 07:07:14;;;;;;;5.30;4.13;;;15.80;91.00;;;;;;5071565;28;20793;-71
2023/07/26 07:09:42;;;;;;;3.60;3.30;;;15.90;90.80;;;;;;5069642;28;20439;-70
2023/07/26 07:12:10;;;;;;;3.80;3.40;;;15.90;91.10;;;;;;5069801;28;20430;-71
2023/07/26 07:14:36;;;;;;;4.25;3.10;;;16.00;91.10;;;;;;5069772;28;20697;-70
2023/07/26 07:17:03;;;;;;;5.05;3.30;;;16.10;90.40;;;;;;5069199;28;20424;-71
2023/07/26 07:19:30;;;;;;;3.20;2.90;;;16.20;89.90;;;;;;5066491;28;20524;-71
2023/07/26 07:21:58;;;;;;;4.75;3.40;;;16.20;90.40;;;;;;5069670;28;20411;-71
2023/07/26 07:24:25;;;;;;;4.30;3.53;;;16.30;90.20;;;;;;5068592;28;20923;-71
2023/07/26 07:26:52;;;;;;;4.80;3.50;;;16.30;90.10;;;;;;5066401;28;20416;-71
2023/07/26 07:29:18;;;;;;;4.20;2.83;;;16.40;89.40;;;;;;5069103;28;20407;-71
2023/07/26 07:31:45;;;;;;;4.78;3.40;;;16.40;89.80;;;;;;5068848;28;20438;-71
2023/07/26 07:34:12;;;;;;;4.85;3.15;;;16.50;90.10;;;;;;5068283;28;20431;-71
2023/07/26 07:36:38;;;;;;;3.55;2.60;;;16.60;88.90;;;;;;5068112;28;20782;-71
2023/07/26 07:39:09;;;;;;;4.27;3.43;;;16.80;89.30;;;;;;5068207;28;20435;-70
2023/07/26 07:41:36;;;;;;;5.00;3.22;;;16.90;88.60;;;;;;5069324;28;20450;-71
2023/07/26 07:44:02;;;;;;;4.22;3.00;;;16.90;87.90;;;;;;5067960;28;20420;-70
2023/07/26 07:46:29;;;;;;;5.10;3.30;;;17.00;86.20;;;;;;5070118;28;20422;-71
2023/07/26 07:48:56;;;;;;;3.40;2.80;;;17.00;85.70;;;;;;5068376;28;20415;-71
2023/07/26 07:51:23;;;;;;;4.65;3.50;;;16.90;87.00;;;;;;5066406;28;20458;-71
2023/07/26 07:53:50;;;;;;;6.00;3.20;;;17.00;87.30;;;;;;5068589;28;20949;-71
2023/07/26 07:56:18;;;;;;;3.83;3.13;;;17.00;85.90;;;;;;5066476;28;20442;-70
2023/07/26 07:58:45;;;;;;;5.53;3.63;;;17.10;86.10;;;;;;5067178;28;20467;-71
2023/07/26 08:01:12;;;;;;;5.03;3.20;;;17.30;86.10;;;;;;5069148;28;20447;-71
2023/07/26 08:03:38;;;;;;;4.35;2.90;;;17.60;86.70;;;;;;5066286;28;20413;-71
2023/07/26 08:06:05;;;;;;;4.22;2.90;;;17.90;85.10;;;;;;5072894;28;20427;-71
2023/07/26 08:08:32;;;;;;;4.30;2.65;;;18.20;82.90;;;;;;5073045;28;20472;-71
2023/07/26 08:10:58;;;;;;;4.30;3.10;;;18.30;82.80;;;;;;5067009;28;20594;-71
2023/07/26 08:13:26;;;;;;;4.50;3.20;;;18.40;82.50;;;;;;5067970;28;20423;-71
2023/07/26 08:15:53;;;;;;;5.53;3.00;;;18.40;81.00;;;;;;5068173;28;20424;-71
2023/07/26 08:18:20;;;;;;;5.10;2.93;;;18.30;81.00;;;;;;5065592;28;20427;-71
2023/07/26 08:20:47;;;;;;;5.20;2.80;;;18.40;81.10;;;;;;5067906;28;20419;-71
2023/07/26 08:23:14;;;;;;;3.83;2.90;;;18.40;81.20;;;;;;5068498;28;20422;-71
2023/07/26 08:25:41;;;;;;;5.30;3.53;;;18.40;81.10;;;;;;5066336;28;20431;-71
2023/07/26 08:28:08;;;;;;;8.20;4.30;;;18.40;80.90;;;;;;5067669;28;20790;-71
2023/07/26 08:30:36;;;;;;;5.50;3.23;;;18.20;82.40;;;;;;5067726;28;20416;-71
2023/07/26 08:33:03;;;;;;;4.72;3.17;;;18.20;82.40;;;;;;5068187;28;20809;-71
2023/07/26 08:35:30;;;;;;;6.00;3.20;;;18.20;82.60;;;;;;5071911;28;20411;-72
2023/07/26 08:37:57;;;;;;;4.65;3.40;;;18.30;83.00;;;;;;5067884;28;20427;-71
2023/07/26 08:40:24;;;;;;;6.88;2.83;;;18.60;80.80;;;;;;5072425;28;20431;-70
2023/07/26 08:42:51;;;;;;;4.20;2.80;;;18.90;79.50;;;;;;5067781;28;20770;-71
2023/07/26 08:45:19;;;;;;;5.00;2.80;;;19.00;78.60;;;;;;5068032;28;20793;-71
2023/07/26 08:47:47;;;;;;;5.30;2.80;;;19.20;73.90;;;;;;5067695;28;20418;-71
2023/07/26 08:50:14;;;;;;;3.65;2.70;;;19.30;72.90;;;;;;5066150;28;20432;-71
2023/07/26 08:52:42;;;;;;;4.97;2.92;;;19.40;73.30;;;;;;5073291;28;20434;-71
2023/07/26 08:55:11;;;;;;;6.05;3.10;;;19.40;72.40;;;;;;5070504;28;20442;-72
2023/07/26 08:57:38;;;;;;;3.33;2.85;;;19.40;71.90;;;;;;5067558;28;20422;-72
2023/07/26 09:00:07;;;;;;;5.47;3.08;;;19.20;72.40;;;;;;5064364;28;20562;-71
2023/07/26 09:02:35;;;;;;;3.85;2.92;;;19.10;73.10;;;;;;5065063;28;20407;-71
2023/07/26 09:05:03;;;;;;;4.85;3.20;;;18.90;72.90;;;;;;5068770;28;20422;-71
2023/07/26 09:07:30;;;;;;;3.92;3.17;;;19.00;74.60;;;;;;5068237;28;20498;-70
2023/07/26 09:09:57;;;;;;;6.63;3.60;;;19.10;75.00;;;;;;5067915;28;20415;-71
2023/07/26 09:12:28;;;;;;;3.90;3.00;;;19.10;76.20;;;;;;5072541;28;20584;-72
2023/07/26 09:14:57;;;;;;;4.50;2.83;;;19.20;70.60;;;;;;5080019;28;20569;-71
2023/07/26 09:17:37;;;;;;;3.90;3.20;;;19.10;70.50;;;;;;5072459;28;20427;-71
2023/07/26 09:20:07;;;;;;;4.82;2.97;;;19.20;71.10;;;;;;5064555;28;20933;-71
2023/07/26 09:22:33;;;;;;;4.25;2.90;;;19.20;71.60;;;;;;5068211;28;20635;-71
2023/07/26 09:25:00;;;;;;;6.72;3.53;;;19.10;71.50;;;;;;5070848;28;20414;-70
2023/07/26 09:27:27;;;;;;;7.70;3.40;;;19.00;74.40;;;;;;5070428;28;20427;-70
2023/07/26 09:29:57;;;;;;;4.25;3.40;;;18.70;76.30;;;;;;5073846;28;20912;-69
2023/07/26 09:32:29;;;;;;;4.82;3.50;;;18.40;79.70;;;;;;5071017;28;20438;-69
2023/07/26 09:34:59;;;;;;;5.00;3.60;;;18.20;78.90;;;;;;5069911;28;20434;-70
2023/07/26 09:37:28;;;;;;;3.97;3.15;;;18.00;81.30;;;;;;5071427;28;20898;-70
2023/07/26 09:39:55;;;;;;;5.13;3.63;;;18.00;81.20;;;;;;5070725;28;20449;-70
2023/07/26 09:42:21;;;;;;;6.43;3.90;;;18.10;82.30;;;;;;5071588;28;20794;-70
2023/07/26 09:44:56;;;;;;;5.75;3.40;;;18.30;78.40;;;;;;5070901;28;20423;-70
2023/07/26 09:47:35;;;;;;;4.30;3.40;;;18.60;78.10;;;;;;5070623;28;20423;-70
2023/07/26 09:50:02;;;;;;;5.13;3.42;;;19.00;77.50;;;;;;5070801;28;20424;-70
2023/07/26 09:52:31;;;;;;;4.88;3.30;;;19.40;73.20;;;;;;5071147;28;20423;-70
2023/07/26 09:55:00;;;;;;;4.65;3.28;;;19.80;69.00;;;;;;5071165;28;20438;-73
2023/07/26 09:57:29;;;;;;;4.13;2.80;;;20.00;66.50;;;;;;5071787;28;20411;-72
2023/07/26 10:00:00;;;;;;;4.68;3.20;;;20.20;67.00;;;;;;5077111;28;20428;-78
2023/07/26 10:02:28;;;;;;;3.83;2.90;;;20.30;65.60;;;;;;5069439;28;20431;-72
2023/07/26 10:04:58;;;;;;;4.63;3.42;;;20.20;65.00;;;;;;5068853;28;20446;-72
2023/07/26 10:07:28;;;;;;;4.20;3.70;;;20.00;79.10;;;;;;5070898;28;20426;-72
2023/07/26 10:09:58;;;;;;;6.80;3.83;;;19.30;81.10;;;;;;5069216;28;20455;-73
2023/07/26 10:12:26;;;;;;;8.25;4.35;;;18.60;83.60;;;;;;5070841;28;20506;-72
2023/07/26 10:14:56;;;;;;;8.07;6.05;;;18.20;90.30;;;;;;5070740;28;20486;-74
2023/07/26 10:17:25;;;;;;;8.32;6.80;;;17.60;99.60;;;;;;5070531;28;20951;-72
2023/07/26 10:19:53;;;;;;;6.88;6.18;;;17.10;99.90;;;;;;5070164;28;20500;-73
2023/07/26 10:22:21;;;;;;;7.75;6.88;;;16.60;99.90;;;;;;5070778;28;20420;-73
2023/07/26 10:24:47;;;;;;;9.27;8.38;;;16.20;99.90;;;;;;5067773;28;20956;-72
2023/07/26 10:27:16;;;;;;;8.20;6.90;;;16.00;99.90;;;;;;5087255;22;20426;-68
2023/07/26 10:29:43;;;;;;;7.93;7.22;;;15.90;99.90;;;;;;5050362;28;20466;-69
2023/07/26 10:32:11;;;;;;;8.70;7.28;;;15.80;99.90;;;;;;5069901;28;20411;-69
2023/07/26 10:34:37;;;;;;;7.60;6.35;;;15.80;99.90;;;;;;5057389;28;20432;-69
2023/07/26 10:37:15;;;;;;;9.90;6.60;;;15.80;99.90;;;;;;5057298;28;20438;-69
2023/07/26 10:39:42;;;;;;;8.90;7.50;;;15.80;99.90;;;;;;5058744;28;20456;-69
2023/07/26 10:42:22;;;;;;;10.65;8.15;;;15.80;99.90;;;;;;5056226;28;20937;-69
2023/07/26 10:44:49;;;;;;;11.57;9.10;;;15.70;99.90;;;;;;5064407;28;20502;-70
2023/07/26 10:47:16;;;;;;;10.77;9.68;;;15.60;99.90;;;;;;5057732;28;20789;-70
2023/07/26 10:49:47;;;;;;;10.68;9.20;;;15.70;99.90;;;;;;5058408;28;20414;-69
2023/07/26 10:52:14;;;;;;;8.60;7.80;;;16.00;99.90;;;;;;5070191;28;20966;-69
2023/07/26 10:54:42;;;;;;;8.30;7.50;;;16.50;99.90;;;;;;5063331;28;20831;-71
2023/07/26 10:57:31;;;;;;;7.55;6.85;;;16.80;99.90;;;;;;5081770;28;20457;-70
2023/07/26 10:59:59;;;;;;;7.72;6.93;;;16.90;99.90;;;;;;5082070;28;20417;-72
2023/07/26 11:02:37;;;;;;;7.03;6.30;;;16.90;99.90;;;;;;5072710;28;20423;-69
2023/07/26 11:05:06;;;;;;;5.95;5.40;;;16.90;99.90;;;;;;5053100;28;20411;-70
2023/07/26 11:07:58;;;;;;;6.20;5.70;;;16.80;99.90;;;;;;5066870;28;20488;-70
2023/07/26 11:10:28;;;;;;;6.25;5.15;;;16.60;99.90;;;;;;5048621;28;20804;-70
2023/07/26 11:13:08;;;;;;;6.10;4.30;;;16.50;99.90;;;;;;5057104;28;21141;-69
2023/07/26 11:15:36;;;;;;;18.70;5.55;;;16.30;99.90;;;;;;5066820;28;21022;-71
2023/07/26 11:18:03;;;;;;;13.27;7.00;;;15.50;99.90;;;;;;5042926;28;20791;-70
2023/07/26 11:20:30;;;;;;;10.15;7.88;;;14.40;99.90;;;;;;5062082;28;20437;-70
2023/07/26 11:22:57;;;;;;;14.80;9.85;;;13.80;99.90;;;;;;5058798;28;20424;-70
2023/07/26 11:25:24;;;;;;;17.30;12.90;;;13.50;99.90;;;;;;5059340;28;20437;-70
2023/07/26 11:27:51;;;;;;;12.98;10.60;;;13.40;99.90;;;;;;5057363;28;20425;-71
2023/07/26 11:30:20;;;;;;;15.65;11.20;;;13.30;99.90;;;;;;5059100;28;21010;-71
2023/07/26 11:32:48;;;;;;;16.38;12.30;;;13.20;99.90;;;;;;5054705;28;20521;-70
2023/07/26 11:35:17;;;;;;;18.23;14.10;;;13.10;99.90;;;;;;5051361;28;20798;-70
2023/07/26 11:37:58;;;;;;;15.20;13.70;;;13.10;99.90;;;;;;5050134;28;20433;-70
2023/07/26 11:40:25;;;;;;;19.00;14.80;;;13.10;99.90;;;;;;5056241;28;20424;-71
2023/07/26 11:42:52;;;;;;;17.77;14.50;;;13.20;99.90;;;;;;5056645;28;20431;-69
2023/07/26 11:45:20;;;;;;;18.58;16.58;;;13.30;99.90;;;;;;5047360;28;20428;-71
2023/07/26 11:47:46;;;;;;;18.45;16.55;;;13.50;99.90;;;;;;5056911;28;20426;-70
2023/07/26 11:50:20;;;;;;;17.80;14.85;;;13.60;99.90;;;;;;5059286;28;20486;-69
2023/07/26 11:53:03;;;;;;;16.73;14.75;;;13.70;99.90;;;;;;5052715;28;20425;-70
2023/07/26 11:55:29;;;;;;;18.87;15.30;;;13.80;99.90;;;;;;5065450;28;20445;-70
2023/07/26 11:57:56;;;;;;;16.33;14.57;;;13.90;99.90;;;;;;5044438;28;20485;-73
2023/07/26 12:00:24;;;;;;;14.25;12.85;;;13.90;99.90;;;;;;5055414;28;20432;-70
2023/07/26 12:02:51;;;;;;;15.18;13.57;;;13.90;99.90;;;;;;5065815;28;20822;-70
2023/07/26 12:05:19;;;;;;;15.13;13.73;;;14.20;99.90;;;;;;5055541;28;20417;-69
2023/07/26 12:07:48;;;;;;;14.02;12.52;;;14.50;99.90;;;;;;5050056;28;20520;-70
2023/07/26 12:10:17;;;;;;;12.77;11.63;;;14.80;99.90;;;;;;5058904;28;20407;-70
2023/07/26 12:12:44;;;;;;;13.40;12.00;;;15.30;99.90;;;;;;5046112;28;20437;-69
2023/07/26 12:15:11;;;;;;;11.50;10.50;;;15.90;99.90;;;;;;5060829;28;20427;-71
2023/07/26 12:17:58;;;;;;;9.40;8.60;;;16.40;99.90;;;;;;5058647;28;20435;-72
2023/07/26 12:20:26;;;;;;;7.63;7.03;;;16.80;99.90;;;;;;5045076;28;20425;-70
2023/07/26 12:22:54;;;;;;;5.90;5.40;;;17.10;99.90;;;;;;5051548;28;20723;-71
2023/07/26 12:25:21;;;;;;;5.10;4.60;;;17.30;99.90;;;;;;5048980;28;20425;-72
2023/07/26 12:27:49;;;;;;;4.20;3.80;;;17.50;99.90;;;;;;5044849;28;20440;-72
2023/07/26 12:30:19;;;;;;;3.60;3.30;;;17.60;99.90;;;;;;5058344;28;20448;-72
2023/07/26 12:32:46;;;;;;;3.50;3.20;;;17.80;99.90;;;;;;5064699;28;20422;-72
2023/07/26 12:35:22;;;;;;;3.53;3.22;;;18.00;99.90;;;;;;5050429;28;20478;-72
2023/07/26 12:37:50;;;;;;;3.28;2.97;;;18.20;99.90;;;;;;5061259;28;20486;-71
2023/07/26 12:40:19;;;;;;;3.30;2.88;;;18.30;99.90;;;;;;5061215;28;20435;-71
2023/07/26 12:42:45;;;;;;;3.50;2.75;;;18.60;99.90;;;;;;5052221;28;20455;-73
2023/07/26 12:45:13;;;;;;;4.50;2.70;;;18.80;99.90;;;;;;5053842;28;20419;-71
2023/07/26 12:47:40;;;;;;;2.60;2.40;;;19.10;99.90;;;;;;5052832;28;20421;-73